Taintor, Iowa
Current Conditions -  °F | °C
As of 7:55 PM on Saturday 20 Dec 2014 (Local Time) from KPEA Reporting Station
Haze Haze  
Wind Chill: 35°   Ceiling: 300
Heat Index: 35°   Visibility: 2.5mi
Dew Point: 34°   Wind: 3mph
Humidity: 99%   Direction: 160°SSE
Pressure: 30.16"   Gusts: NA
Location:  41.465°N, 92.7016°W
Report Text: KPEA 210155Z AUTO 16003KT 2 1/2SM BR OVC003 01/01 A3016 RMK AO2 T00140012
Loading
Personal Weather Stations






























Interactive Weather Map New forecast layout! Learn more

10-Day Weather Forecast

Advertisements
Track Severe Weather on mobile